Time;durP1;ratioP1;P1;durP2;ratioP2;P2;SDS_P1;SDS_P2;PMS_P1;PMS_P2;Temp;Humidity;BMP_temperature;BMP_pressure;BME280_temperature;BME280_humidity;BME280_pressure;Samples;Min_cycle;Max_cycle;Signal;HPM_P1;HPM_P2
2022/07/27 00:02:05;;;;;;;6.00;1.00;;;;;;;-145.18;100.00;46652.59;5029090;28;20507;-74
2022/07/27 00:04:30;;;;;;;8.40;1.27;;;;;;;-145.18;100.00;46650.63;5028932;28;20058;-74
2022/07/27 00:06:56;;;;;;;3.33;0.87;;;;;;;-145.18;100.00;46648.69;5012157;28;20458;-74
2022/07/27 00:09:22;;;;;;;3.87;1.07;;;;;;;-145.18;100.00;46652.59;5029927;28;20113;-74
2022/07/27 00:11:48;;;;;;;7.93;1.50;;;;;;;-145.18;100.00;46648.69;5029672;28;20088;-74
2022/07/27 00:14:13;;;;;;;5.13;1.40;;;;;;;-145.18;100.00;46646.72;5011943;28;20042;-74
2022/07/27 00:16:39;;;;;;;6.23;1.70;;;;;;;-145.18;100.00;46646.72;5027551;28;20033;-74
2022/07/27 00:19:04;;;;;;;5.20;1.10;;;;;;;-145.18;100.00;46644.78;5028435;28;20033;-75
2022/07/27 00:21:30;;;;;;;4.47;1.27;;;;;;;-145.18;100.00;46646.72;5011037;28;20486;-75
2022/07/27 00:23:55;;;;;;;5.07;1.17;;;;;;;-145.18;100.00;46642.81;5029972;28;20034;-74
2022/07/27 00:26:21;;;;;;;7.60;1.70;;;;;;;-145.18;100.00;46642.81;5029034;28;20478;-74
2022/07/27 00:28:47;;;;;;;3.97;1.23;;;;;;;-145.18;100.00;46644.78;5029848;28;20044;-74
2022/07/27 00:31:12;;;;;;;6.03;1.67;;;;;;;-145.18;100.00;46644.78;5029683;28;20041;-74
2022/07/27 00:33:37;;;;;;;5.93;1.30;;;;;;;-145.18;100.00;46642.81;5028825;28;20076;-74
2022/07/27 00:36:03;;;;;;;2.93;1.50;;;;;;;-145.18;100.00;46640.88;5029578;28;20029;-74
2022/07/27 00:38:29;;;;;;;7.37;1.50;;;;;;;-145.18;100.00;46638.91;5011678;28;20041;-73
2022/07/27 00:40:54;;;;;;;6.70;1.40;;;;;;;-145.18;100.00;46638.91;5029972;28;20041;-74
2022/07/27 00:43:20;;;;;;;3.87;1.40;;;;;;;-145.18;100.00;46644.78;5032968;28;20040;-74
2022/07/27 00:45:45;;;;;;;4.47;1.50;;;;;;;-145.18;100.00;46640.88;5015782;28;20037;-74
2022/07/27 00:48:11;;;;;;;4.97;1.50;;;;;;;-145.18;100.00;46640.88;5014853;28;20037;-73
2022/07/27 00:50:39;;;;;;;9.23;1.70;;;;;;;-145.18;100.00;46636.94;5033289;28;20087;-73
2022/07/27 00:53:07;;;;;;;7.83;1.70;;;;;;;-145.18;100.00;46640.88;5032740;28;20421;-73
2022/07/27 00:55:33;;;;;;;5.63;1.73;;;;;;;-145.18;100.00;46660.41;5015715;28;20028;-74
2022/07/27 00:57:59;;;;;;;6.50;1.70;;;;;;;-145.18;100.00;46660.41;5032906;28;20029;-74
2022/07/27 01:00:26;;;;;;;4.20;1.93;;;;;;;-145.18;100.00;46640.88;5033348;28;20145;-74
2022/07/27 01:02:51;;;;;;;4.30;1.97;;;;;;;-145.18;100.00;46676.03;5030649;28;20517;-74
2022/07/27 01:05:17;;;;;;;7.37;1.77;;;;;;;-145.18;100.00;46676.03;5033329;28;20042;-73
2022/07/27 01:07:42;;;;;;;9.20;1.97;;;;;;;-145.18;100.00;46660.41;5032687;28;20446;-74
2022/07/27 01:10:07;;;;;;;9.33;1.90;;;;;;;-145.18;100.00;46660.41;5033272;28;20063;-74
2022/07/27 01:12:33;;;;;;;3.83;1.60;;;;;;;-145.18;100.00;46676.03;5032320;28;20045;-73
2022/07/27 01:14:59;;;;;;;4.93;1.90;;;;;;;-145.18;100.00;46676.03;5032389;28;20045;-74
2022/07/27 01:17:29;;;;;;;9.53;1.93;;;;;;;-145.18;100.00;46676.03;5031451;28;20039;-73
2022/07/27 01:19:55;;;;;;;5.33;1.90;;;;;;;-145.18;100.00;46638.91;5033028;28;20083;-74
2022/07/27 01:22:20;;;;;;;5.90;2.17;;;;;;;-145.18;100.00;46660.41;5032188;28;20037;-74
2022/07/27 01:24:48;;;;;;;6.10;1.97;;;;;;;-145.18;100.00;46638.91;5015082;28;20041;-73
2022/07/27 01:27:13;;;;;;;3.37;1.80;;;;;;;-145.18;100.00;46660.41;5032259;28;20045;-73
2022/07/27 01:29:39;;;;;;;3.53;2.10;;;;;;;-145.18;100.00;46660.41;5032699;28;20029;-73
2022/07/27 01:32:05;;;;;;;6.60;1.80;;;;;;;-145.18;100.00;46636.94;5032324;28;20144;-75
2022/07/27 01:34:32;;;;;;;7.17;2.30;;;;;;;-145.18;100.00;46676.03;5014375;28;20043;-74
2022/07/27 01:36:58;;;;;;;4.53;1.60;;;;;;;-145.18;100.00;46660.41;5031803;28;20053;-74
2022/07/27 01:39:24;;;;;;;4.30;1.80;;;;;;;-145.18;100.00;46660.41;5032676;28;20033;-74
2022/07/27 01:41:49;;;;;;;4.80;1.60;;;;;;;-145.18;100.00;46676.03;5032011;28;20534;-74
2022/07/27 01:44:14;;;;;;;7.20;2.00;;;;;;;-145.18;100.00;46636.94;5014722;28;20556;-74
2022/07/27 01:46:40;;;;;;;6.17;2.10;;;;;;;-145.18;100.00;46660.41;5031799;28;20168;-73
2022/07/27 01:49:05;;;;;;;6.40;2.00;;;;;;;-145.18;100.00;46638.91;5032348;28;20095;-73
2022/07/27 01:51:31;;;;;;;7.37;1.70;;;;;;;-145.18;100.00;46638.91;5031739;28;20037;-75
2022/07/27 01:53:56;;;;;;;5.03;1.50;;;;;;;-145.18;100.00;46638.91;5030991;28;20069;-74
2022/07/27 01:56:22;;;;;;;6.03;1.80;;;;;;;-145.18;100.00;46640.88;5032003;28;20460;-74
2022/07/27 01:58:47;;;;;;;5.70;1.23;;;;;;;-145.18;100.00;46638.91;5013933;28;20431;-75
2022/07/27 02:03:48;;;;;;;5.43;1.40;;;;;;;-145.18;100.00;46676.03;5000264;23;20137;-76
2022/07/27 02:06:13;;;;;;;3.90;1.47;;;;;;;-145.18;100.00;46640.88;4989602;28;20046;-76
2022/07/27 02:08:39;;;;;;;5.30;1.80;;;;;;;-145.18;100.00;46660.41;4991635;28;20648;-75
2022/07/27 02:13:49;;;;;;;5.50;1.43;;;;;;;-145.18;100.00;46638.91;4972953;28;20070;-74
2022/07/27 02:16:16;;;;;;;6.30;1.60;;;;;;;-145.18;100.00;46660.41;4973057;28;20113;-76
2022/07/27 02:18:41;;;;;;;5.23;1.30;;;;;;;-145.18;100.00;46638.91;4973952;28;20034;-76
2022/07/27 02:21:07;;;;;;;5.03;1.40;;;;;;;-145.18;100.00;46676.03;4992268;28;20038;-74
2022/07/27 02:23:34;;;;;;;9.00;1.67;;;;;;;-145.18;100.00;46676.03;4991989;28;20133;-74
2022/07/27 02:26:00;;;;;;;6.13;1.50;;;;;;;-145.18;100.00;46676.03;4992172;28;20045;-73
2022/07/27 02:28:25;;;;;;;3.17;1.60;;;;;;;-145.18;100.00;46636.94;4992165;28;20046;-75
2022/07/27 02:30:51;;;;;;;3.57;1.40;;;;;;;-145.18;100.00;46636.94;4992215;28;20443;-76
2022/07/27 02:33:16;;;;;;;3.63;1.20;;;;;;;-145.18;100.00;46660.41;4991683;28;20045;-76
2022/07/27 02:35:42;;;;;;;5.23;1.57;;;;;;;-145.18;100.00;46636.94;4992265;28;20057;-76
2022/07/27 02:38:07;;;;;;;4.27;1.37;;;;;;;-145.18;100.00;46676.03;4991801;28;20096;-76
2022/07/27 02:40:33;;;;;;;4.50;1.43;;;;;;;-145.18;100.00;46636.94;4992168;28;20549;-77
2022/07/27 02:42:58;;;;;;;6.37;1.73;;;;;;;-145.18;100.00;46636.94;4991178;28;20045;-76
2022/07/27 02:45:23;;;;;;;2.20;1.17;;;;;;;-145.18;100.00;46636.94;4992005;28;20050;-76
2022/07/27 02:47:49;;;;;;;5.03;1.30;;;;;;;-145.18;100.00;46638.91;4991661;28;20099;-76
2022/07/27 02:50:14;;;;;;;2.13;1.07;;;;;;;-145.18;100.00;46636.94;4991383;28;20038;-76
2022/07/27 02:52:40;;;;;;;3.77;1.30;;;;;;;-145.18;100.00;46638.91;4974093;28;20137;-75
2022/07/27 02:55:06;;;;;;;4.83;1.40;;;;;;;-145.18;100.00;46638.91;4974204;28;20041;-75
2022/07/27 02:57:33;;;;;;;3.37;1.43;;;;;;;-145.18;100.00;46638.91;4991384;28;20049;-75
2022/07/27 02:59:59;;;;;;;3.27;1.37;;;;;;;-145.18;100.00;46638.91;4991669;28;20042;-76
2022/07/27 03:02:24;;;;;;;4.83;1.17;;;;;;;-145.18;100.00;46644.78;4990821;28;20371;-76
2022/07/27 03:04:50;;;;;;;3.83;1.30;;;;;;;-145.18;100.00;46636.94;4991390;28;20042;-76
2022/07/27 03:07:15;;;;;;;3.67;1.30;;;;;;;-145.18;100.00;46636.94;4990824;28;20038;-75
2022/07/27 03:09:40;;;;;;;4.40;1.43;;;;;;;-145.18;100.00;46676.03;4991683;28;20069;-77
2022/07/27 03:12:06;;;;;;;5.70;1.43;;;;;;;-145.18;100.00;46660.41;4991182;28;20043;-77
2022/07/27 03:14:31;;;;;;;4.97;1.40;;;;;;;-145.18;100.00;46660.41;4991100;28;20046;-76
2022/07/27 03:16:57;;;;;;;3.50;1.53;;;;;;;-145.18;100.00;46636.94;4991492;28;20069;-76
2022/07/27 03:19:22;;;;;;;6.27;2.27;;;;;;;-145.18;100.00;46636.94;4991177;28;20041;-75
2022/07/27 03:21:47;;;;;;;6.87;1.57;;;;;;;-145.18;100.00;46676.03;4991427;28;20039;-76
2022/07/27 03:24:13;;;;;;;4.20;1.47;;;;;;;-145.18;100.00;46660.41;4990688;28;20049;-76
2022/07/27 03:26:38;;;;;;;4.57;1.37;;;;;;;-145.18;100.00;46676.03;4991169;28;20140;-75
2022/07/27 03:29:04;;;;;;;6.47;1.90;;;;;;;-145.18;100.00;46636.94;4990742;28;20038;-76
2022/07/27 03:31:29;;;;;;;5.90;1.93;;;;;;;-145.18;100.00;46660.41;4991457;28;20042;-76
2022/07/27 03:33:54;;;;;;;6.23;1.70;;;;;;;-145.18;100.00;46660.41;4990792;28;20113;-75
2022/07/27 03:36:20;;;;;;;4.73;1.80;;;;;;;-145.18;100.00;46660.41;4990719;28;20436;-76
2022/07/27 03:38:46;;;;;;;3.60;1.70;;;;;;;-145.18;100.00;46676.03;4986988;28;20117;-77
2022/07/27 03:41:11;;;;;;;4.60;1.50;;;;;;;-145.18;100.00;46660.41;4989425;28;20069;-76
2022/07/27 03:43:36;;;;;;;4.77;1.50;;;;;;;-145.18;100.00;46660.41;4989728;28;20034;-77
2022/07/27 03:46:02;;;;;;;7.53;1.60;;;;;;;-145.18;100.00;46660.41;4991209;28;20182;-77
2022/07/27 03:48:28;;;;;;;7.23;1.50;;;;;;;-145.18;100.00;46660.41;4986413;28;20078;-77
2022/07/27 03:50:53;;;;;;;5.80;1.33;;;;;;;-145.18;100.00;46660.41;4989027;28;20387;-77
2022/07/27 03:53:20;;;;;;;3.23;1.20;;;;;;;-145.18;100.00;46660.41;4989806;28;20034;-77
2022/07/27 03:55:49;;;;;;;4.23;1.37;;;;;;;-145.18;100.00;46660.41;4984797;28;20553;-76
2022/07/27 03:58:16;;;;;;;4.73;1.70;;;;;;;-145.18;100.00;46660.41;4981409;28;20031;-76
2022/07/27 04:00:42;;;;;;;8.33;1.73;;;;;;;-145.18;100.00;46660.41;4990828;28;20113;-76
2022/07/27 04:03:07;;;;;;;5.60;1.40;;;;;;;-145.18;100.00;46660.41;4989876;28;20545;-76
2022/07/27 04:05:33;;;;;;;5.83;1.40;;;;;;;-145.18;100.00;46660.41;4985200;28;20042;-77
2022/07/27 04:07:58;;;;;;;5.83;1.30;;;;;;;-145.18;100.00;46660.41;4971001;28;20522;-76
2022/07/27 04:10:24;;;;;;;6.93;1.93;;;;;;;-145.18;100.00;46676.03;4953842;28;20034;-77
2022/07/27 04:12:49;;;;;;;14.53;3.20;;;;;;;-145.18;100.00;46635.00;4970699;28;20037;-76
2022/07/27 04:15:17;;;;;;;9.10;2.10;;;;;;;-145.18;100.00;46660.41;4970976;28;20035;-76
2022/07/27 04:17:43;;;;;;;7.90;1.67;;;;;;;-145.18;100.00;46660.41;4978754;28;20041;-75
2022/07/27 04:20:09;;;;;;;4.00;1.30;;;;;;;-145.18;100.00;46635.00;4994431;28;20109;-76
2022/07/27 04:22:35;;;;;;;8.20;1.63;;;;;;;-145.18;100.00;46660.41;4993560;28;20038;-75
2022/07/27 04:25:00;;;;;;;7.67;1.80;;;;;;;-145.18;100.00;46660.41;4993165;28;20069;-76
2022/07/27 04:27:25;;;;;;;4.43;1.40;;;;;;;-145.18;100.00;46635.00;4994202;28;20038;-76
2022/07/27 04:29:51;;;;;;;5.53;1.63;;;;;;;-145.18;100.00;46631.09;4994766;28;20046;-76
2022/07/27 04:32:16;;;;;;;7.83;1.50;;;;;;;-145.18;100.00;46633.06;4994388;28;20034;-76
2022/07/27 04:34:41;;;;;;;8.87;1.60;;;;;;;-145.18;100.00;46633.06;4994070;28;20057;-76
2022/07/27 04:37:07;;;;;;;4.70;1.47;;;;;;;-145.18;100.00;46660.41;4994266;28;20586;-75
2022/07/27 04:39:32;;;;;;;5.60;1.87;;;;;;;-145.18;100.00;46660.41;4993292;28;20502;-76
2022/07/27 04:41:57;;;;;;;11.37;1.87;;;;;;;-145.18;100.00;46660.41;4994424;28;20068;-76
2022/07/27 04:44:23;;;;;;;6.10;1.80;;;;;;;-145.18;100.00;46660.41;4993988;28;20040;-76
2022/07/27 04:46:48;;;;;;;5.60;1.67;;;;;;;-145.18;100.00;46631.09;4993983;28;20034;-75
2022/07/27 04:49:14;;;;;;;7.00;2.20;;;;;;;-145.18;100.00;46660.41;4990603;28;20034;-75
2022/07/27 04:51:42;;;;;;;7.77;3.27;;;;;;;-145.18;100.00;46631.09;4994094;28;20034;-75
2022/07/27 04:54:08;;;;;;;9.03;2.33;;;;;;;-145.18;100.00;46660.41;4992818;28;20031;-76
2022/07/27 04:56:33;;;;;;;12.47;3.17;;;;;;;-145.18;100.00;46660.41;4994437;28;20031;-75
2022/07/27 04:58:58;;;;;;;11.37;2.70;;;;;;;-145.18;100.00;46629.13;4975563;28;20392;-75
2022/07/27 05:01:24;;;;;;;7.50;2.43;;;;;;;-145.18;100.00;46633.06;4993382;28;20057;-76
2022/07/27 05:03:50;;;;;;;8.40;1.80;;;;;;;-145.18;100.00;46636.94;4993452;28;20060;-77
2022/07/27 05:06:16;;;;;;;8.07;1.90;;;;;;;-145.18;100.00;46636.94;4993736;28;20054;-76
2022/07/27 05:08:41;;;;;;;12.83;3.30;;;;;;;-145.18;100.00;46640.88;4994075;28;20030;-76
2022/07/27 05:11:07;;;;;;;6.80;1.80;;;;;;;-145.18;100.00;46638.91;4993012;28;20430;-76
2022/07/27 05:13:32;;;;;;;5.80;1.60;;;;;;;-145.18;100.00;46636.94;4993879;28;20058;-75
2022/07/27 05:15:57;;;;;;;5.10;1.70;;;;;;;-145.18;100.00;46633.06;4993053;28;20034;-76
2022/07/27 05:18:24;;;;;;;4.93;1.63;;;;;;;-145.18;100.00;46636.94;4993351;28;20089;-75
2022/07/27 05:20:49;;;;;;;5.20;2.10;;;;;;;-145.18;100.00;46635.00;4976639;28;20038;-77
2022/07/27 05:23:15;;;;;;;6.27;2.00;;;;;;;-145.18;100.00;46635.00;4992784;28;20030;-76
2022/07/27 05:25:40;;;;;;;5.57;1.37;;;;;;;-145.18;100.00;46636.94;4993203;28;20039;-76
2022/07/27 05:28:06;;;;;;;5.93;1.50;;;;;;;-145.18;100.00;46636.94;4993126;28;20065;-77
2022/07/27 05:30:31;;;;;;;7.30;1.07;;;;;;;-145.18;100.00;46640.88;4993730;28;20072;-76
2022/07/27 05:32:57;;;;;;;6.57;1.20;;;;;;;-145.18;100.00;46640.88;4993332;28;20045;-77
2022/07/27 05:35:22;;;;;;;5.17;1.47;;;;;;;-145.18;100.00;46640.88;4993841;28;20487;-77
2022/07/27 05:37:47;;;;;;;7.30;1.50;;;;;;;-145.18;100.00;46642.81;4993646;28;20037;-76
2022/07/27 05:40:13;;;;;;;7.23;1.33;;;;;;;-145.18;100.00;46644.78;4993181;28;20672;-76
2022/07/27 05:42:42;;;;;;;4.47;1.70;;;;;;;-145.18;100.00;46644.78;4976138;28;20066;-77
2022/07/27 05:45:08;;;;;;;6.73;1.70;;;;;;;-145.18;100.00;46642.81;4993479;28;20030;-76
2022/07/27 05:47:34;;;;;;;5.77;1.83;;;;;;;-145.18;100.00;46638.91;4985138;28;20037;-77
2022/07/27 05:49:59;;;;;;;6.63;1.63;;;;;;;-145.18;100.00;46644.78;4966049;28;20030;-76
2022/07/27 05:52:24;;;;;;;4.30;1.93;;;;;;;-145.18;100.00;46646.72;4982655;28;20034;-77
2022/07/27 05:54:50;;;;;;;6.43;1.87;;;;;;;-145.18;100.00;46650.63;4984541;28;20050;-77
2022/07/27 05:57:15;;;;;;;6.93;1.90;;;;;;;-145.18;100.00;46640.88;4968065;28;20058;-76
2022/07/27 05:59:41;;;;;;;3.70;1.53;;;;;;;-145.18;100.00;46648.69;4983598;28;20031;-76
2022/07/27 06:02:07;;;;;;;7.30;1.70;;;;;;;-145.18;100.00;46640.88;4981889;28;20026;-77
2022/07/27 06:04:33;;;;;;;5.93;1.70;;;;;;;-145.18;100.00;46644.78;4982431;28;20541;-77
2022/07/27 06:09:42;;;;;;;7.40;2.53;;;;;;;-145.18;100.00;46642.81;4987456;28;20103;-77
2022/07/27 06:12:07;;;;;;;4.27;1.77;;;;;;;-145.18;100.00;46646.72;4989600;28;20058;-76
2022/07/27 06:14:33;;;;;;;4.83;1.50;;;;;;;-145.18;100.00;46642.81;4992003;28;20042;-77
2022/07/27 06:16:58;;;;;;;4.40;2.07;;;;;;;-145.18;100.00;46646.72;4990400;28;20034;-76
2022/07/27 06:19:23;;;;;;;6.00;2.00;;;;;;;-145.18;100.00;46644.78;4979970;28;20448;-76
2022/07/27 06:21:49;;;;;;;4.37;1.80;;;;;;;-145.18;100.00;46644.78;4992646;28;20174;-76
2022/07/27 06:24:15;;;;;;;4.60;1.87;;;;;;;-145.18;100.00;46648.69;4991591;28;20046;-76
2022/07/27 06:26:40;;;;;;;3.30;1.63;;;;;;;-145.18;100.00;46648.69;4989813;28;20535;-76
2022/07/27 06:29:06;;;;;;;5.20;2.10;;;;;;;-145.18;100.00;46648.69;4991880;28;20439;-76
2022/07/27 06:31:31;;;;;;;8.33;2.10;;;;;;;-145.18;100.00;46648.69;4992326;28;20034;-76
2022/07/27 06:33:57;;;;;;;9.30;2.00;;;;;;;-145.18;100.00;46650.63;4991833;28;20403;-76
2022/07/27 06:36:23;;;;;;;4.60;1.70;;;;;;;-145.18;100.00;46652.59;4989750;28;20042;-76
2022/07/27 06:38:48;;;;;;;3.80;1.67;;;;;;;-145.18;100.00;46648.69;4991020;28;20034;-76
2022/07/27 06:41:14;;;;;;;4.60;1.80;;;;;;;-145.18;100.00;46660.41;4991392;28;20053;-76
2022/07/27 06:43:39;;;;;;;2.60;1.40;;;;;;;-145.18;100.00;46664.31;4991382;28;20089;-76
2022/07/27 06:46:06;;;;;;;4.40;1.80;;;;;;;-145.18;100.00;46668.22;4991733;28;20499;-76
2022/07/27 06:48:32;;;;;;;5.77;1.60;;;;;;;-145.18;100.00;46664.31;4990813;28;20046;-76
2022/07/27 06:50:58;;;;;;;5.17;1.70;;;;;;;-145.18;100.00;46664.31;4991430;28;20046;-76
2022/07/27 06:53:24;;;;;;;6.33;1.70;;;;;;;-145.18;100.00;46664.31;4991413;28;20034;-76
2022/07/27 06:55:49;;;;;;;6.50;1.57;;;;;;;-145.18;100.00;46650.63;4991906;28;20030;-76
2022/07/27 06:58:15;;;;;;;7.73;1.27;;;;;;;-145.18;100.00;46619.38;4979114;28;20415;-76
2022/07/27 07:00:41;;;;;;;5.47;1.30;;;;;;;-145.18;100.00;46597.88;4979046;28;20113;-76
2022/07/27 07:03:06;;;;;;;4.47;0.93;;;;;;;-145.18;100.00;46574.44;4989709;28;20144;-76
2022/07/27 07:05:35;;;;;;;5.17;1.00;;;;;;;-145.18;100.00;46558.81;4990992;28;20050;-76
2022/07/27 07:08:01;;;;;;;6.37;1.13;;;;;;;-145.18;100.00;46539.28;4990854;28;20054;-77
2022/07/27 07:10:26;;;;;;;3.10;0.90;;;;;;;-145.18;100.00;46539.28;4990803;28;20406;-76
2022/07/27 07:12:55;;;;;;;5.97;1.10;;;;;;;-145.18;100.00;46556.88;4988027;28;20041;-77
2022/07/27 07:15:25;;;;;;;6.47;0.97;;;;;;;-145.18;100.00;46562.72;4973524;28;20034;-76
2022/07/27 07:17:51;;;;;;;5.40;0.90;;;;;;;-145.18;100.00;46539.28;4954777;28;20039;-77
2022/07/27 07:20:16;;;;;;;5.43;1.07;;;;;;;-145.18;100.00;46535.38;4982740;28;20041;-77
2022/07/27 07:22:42;;;;;;;3.87;0.90;;;;;;;-145.18;100.00;46537.34;4985005;28;20113;-76
2022/07/27 07:25:07;;;;;;;2.30;0.63;;;;;;;-145.18;100.00;46535.38;4990314;28;20046;-76
2022/07/27 07:27:33;;;;;;;4.43;1.10;;;;;;;-145.18;100.00;46539.28;4991398;28;20046;-77
2022/07/27 07:29:58;;;;;;;5.13;0.87;;;;;;;-145.18;100.00;46543.19;4990970;28;20038;-77
2022/07/27 07:32:24;;;;;;;8.03;1.33;;;;;;;-145.18;100.00;46552.97;4990677;28;20030;-75
2022/07/27 07:34:51;;;;;;;6.80;1.17;;;;;;;-145.18;100.00;46547.09;4990457;28;20029;-76
2022/07/27 07:37:18;;;;;;;6.10;1.10;;;;;;;-145.18;100.00;46551.00;4990112;28;20035;-77
2022/07/27 07:39:44;;;;;;;8.30;1.17;;;;;;;-145.18;100.00;46560.78;4989952;28;20550;-76
2022/07/27 07:42:10;;;;;;;4.40;1.00;;;;;;;-145.18;100.00;46556.88;4990459;28;20034;-76
2022/07/27 07:44:35;;;;;;;4.37;0.90;;;;;;;-145.18;100.00;46558.81;4990630;28;20246;-76
2022/07/27 07:47:01;;;;;;;7.33;1.10;;;;;;;-145.18;100.00;46556.88;4990970;28;20483;-76
2022/07/27 07:49:26;;;;;;;7.27;1.10;;;;;;;-145.18;100.00;46562.72;4989308;28;20030;-76
2022/07/27 07:51:51;;;;;;;5.03;1.30;;;;;;;-145.18;100.00;46570.53;4989371;28;20250;-76
2022/07/27 07:54:17;;;;;;;3.27;1.00;;;;;;;-145.18;100.00;46562.72;4988747;28;20169;-76
2022/07/27 07:56:42;;;;;;;4.10;0.90;;;;;;;-145.18;100.00;46562.72;4991012;28;20031;-76
2022/07/27 07:59:07;;;;;;;9.23;1.60;;;;;;;-145.18;100.00;46570.53;4989619;28;20140;-77
2022/07/27 08:01:33;;;;;;;3.37;0.90;;;;;;;-145.18;100.00;46564.69;4991012;28;20038;-76
2022/07/27 08:03:58;;;;;;;8.47;1.07;;;;;;;-145.18;100.00;46566.63;4989348;28;20054;-76
2022/07/27 08:06:24;;;;;;;8.47;1.20;;;;;;;-145.18;100.00;46564.69;4989947;28;20137;-76
2022/07/27 08:08:49;;;;;;;5.97;1.17;;;;;;;-145.18;100.00;46566.63;4970066;28;20046;-75
2022/07/27 08:11:14;;;;;;;6.37;1.27;;;;;;;-145.18;100.00;46564.69;4969952;28;20032;-77
2022/07/27 08:13:40;;;;;;;6.70;1.40;;;;;;;-145.18;100.00;46584.22;4981234;28;20112;-76
2022/07/27 08:16:05;;;;;;;3.03;0.70;;;;;;;-145.18;100.00;46570.53;4971585;28;20043;-76
2022/07/27 08:18:31;;;;;;;9.20;1.30;;;;;;;-145.18;100.00;46572.50;4988096;28;20042;-77
2022/07/27 08:20:56;;;;;;;2.33;0.90;;;;;;;-145.18;100.00;46613.50;4991072;28;20053;-76
2022/07/27 08:23:21;;;;;;;3.30;0.63;;;;;;;-145.18;100.00;46595.94;4990429;28;20030;-76
2022/07/27 08:25:47;;;;;;;4.87;1.10;;;;;;;-145.18;100.00;46592.03;4991128;28;20498;-76
2022/07/27 08:28:12;;;;;;;4.10;0.87;;;;;;;-145.18;100.00;46607.66;4990409;28;20089;-76
2022/07/27 08:30:38;;;;;;;8.77;1.00;;;;;;;-145.18;100.00;46635.00;4991078;28;20038;-76
2022/07/27 08:33:04;;;;;;;2.40;1.20;;;;;;;-145.18;100.00;46627.19;4990919;28;20133;-76
2022/07/27 08:35:31;;;;;;;6.03;1.53;;;;;;;-145.18;100.00;46599.84;4989777;28;20033;-76
2022/07/27 08:37:58;;;;;;;3.10;0.93;;;;;;;-145.18;100.00;46615.47;4991044;28;20047;-77
2022/07/27 08:40:24;;;;;;;2.97;1.03;;;;;;;-145.18;100.00;46635.00;4990504;28;20388;-76
2022/07/27 08:42:49;;;;;;;5.10;0.90;;;;;;;-145.18;100.00;46629.13;4982064;28;20031;-76
2022/07/27 08:45:18;;;;;;;9.50;1.20;;;;;;;-145.18;100.00;46595.94;4985002;28;20046;-77
2022/07/27 08:47:44;;;;;;;3.40;1.10;;;;;;;-145.18;100.00;46795.19;4990895;28;20053;-77
2022/07/27 08:50:26;;;;;;;9.23;1.50;;;;;;;-145.18;100.00;47178.06;4989599;28;20062;-76
2022/07/27 08:53:03;;;;;;;3.13;0.90;;;;;;;-145.18;100.00;47287.47;4989877;28;20038;-77
2022/07/27 08:55:34;;;;;;;6.70;1.07;;;;;;;-145.18;100.00;47217.13;4990140;28;20045;-76
2022/07/27 08:58:00;;;;;;;2.53;1.03;;;;;;;-145.18;100.00;46787.38;4990708;28;20026;-76
2022/07/27 09:00:26;;;;;;;3.53;1.00;;;;;;;-145.18;100.00;46789.31;4990008;28;20502;-76
2022/07/27 09:02:53;;;;;;;5.00;1.07;;;;;;;-145.18;100.00;47156.56;4992273;28;20208;-76
2022/07/27 09:05:18;;;;;;;3.07;1.33;;;;;;;-145.18;100.00;47053.03;4993294;28;20085;-77
2022/07/27 09:07:44;;;;;;;5.47;1.27;;;;;;;-145.18;100.00;47195.66;4994499;28;20030;-76
2022/07/27 09:10:10;;;;;;;2.30;0.80;;;;;;;-145.18;100.00;47191.75;4993424;28;20368;-77
2022/07/27 09:12:36;;;;;;;4.97;1.00;;;;;;;-145.18;100.00;47174.16;4994071;28;20062;-76
2022/07/27 09:15:10;;;;;;;5.10;0.83;;;;;;;-145.18;100.00;47203.47;4993422;28;20034;-76
2022/07/27 09:17:37;;;;;;;6.70;1.00;;;;;;;-145.18;100.00;47152.66;4993660;28;20026;-76
2022/07/27 09:20:06;;;;;;;4.33;1.10;;;;;;;-145.18;100.00;47117.50;4993774;28;20106;-77
2022/07/27 09:22:44;;;;;;;3.60;1.03;;;;;;;-145.18;100.00;47139.00;4994259;28;20026;-76
2022/07/27 09:25:12;;;;;;;6.47;1.10;;;;;;;-145.18;100.00;47125.31;4992894;28;20485;-77
2022/07/27 09:27:38;;;;;;;2.53;0.87;;;;;;;-145.18;100.00;47109.69;4993955;28;20026;-76
2022/07/27 09:30:07;;;;;;;8.53;1.40;;;;;;;-145.18;100.00;47142.91;4993356;28;20028;-77
2022/07/27 09:32:33;;;;;;;4.47;1.23;;;;;;;-145.18;100.00;47129.22;4993401;28;20482;-77
2022/07/27 09:35:13;;;;;;;3.77;0.90;;;;;;;-145.18;100.00;47115.56;4993077;28;20605;-76
2022/07/27 09:37:38;;;;;;;8.20;1.20;;;;;;;-145.18;100.00;47113.59;4976215;28;20784;-77
2022/07/27 09:40:14;;;;;;;3.27;1.53;;;;;;;-145.18;100.00;47105.78;4992582;28;20082;-77
2022/07/27 09:42:40;;;;;;;2.87;0.97;;;;;;;-145.18;100.00;47160.47;4993635;28;20043;-76
2022/07/27 09:45:44;;;;;;;3.37;0.97;;;;;;;-145.18;100.00;47092.09;4992998;28;20034;-77
2022/07/27 09:48:15;;;;;;;5.40;1.30;;;;;;;-145.18;100.00;47107.72;4913966;29;20105;-77
2022/07/27 09:50:46;;;;;;;5.67;1.30;;;;;;;-145.18;100.00;47113.59;4981376;28;20077;-77
2022/07/27 09:53:16;;;;;;;3.60;1.67;;;;;;;-145.18;100.00;47119.47;4993271;28;20070;-77
2022/07/27 09:55:43;;;;;;;2.47;1.00;;;;;;;-145.18;100.00;47121.41;4993447;28;20030;-76
2022/07/27 09:58:08;;;;;;;5.77;1.30;;;;;;;-145.18;100.00;47144.84;4993157;28;20038;-77
2022/07/27 10:00:34;;;;;;;4.03;1.37;;;;;;;-145.18;100.00;47125.31;4992708;28;20034;-77
2022/07/27 10:02:59;;;;;;;3.87;0.90;;;;;;;-145.18;100.00;47142.91;4992923;28;20035;-75
2022/07/27 10:05:24;;;;;;;6.07;1.10;;;;;;;-145.18;100.00;47148.75;4992347;28;20137;-76
2022/07/27 10:07:53;;;;;;;3.30;0.70;;;;;;;-145.18;100.00;47113.59;4992968;28;20042;-76
2022/07/27 10:10:19;;;;;;;6.83;0.80;;;;;;;-145.18;100.00;47101.88;4992070;28;20112;-75
2022/07/27 10:12:45;;;;;;;4.30;0.87;;;;;;;-145.18;100.00;47094.06;4992999;28;20177;-75
2022/07/27 10:15:11;;;;;;;5.03;1.17;;;;;;;-145.18;100.00;47066.72;4991489;28;20438;-76
2022/07/27 10:17:37;;;;;;;4.00;1.20;;;;;;;-145.18;100.00;47072.56;4992985;28;20045;-75
2022/07/27 10:20:07;;;;;;;3.13;1.03;;;;;;;-145.18;100.00;47092.09;4973567;28;20081;-76
2022/07/27 10:22:48;;;;;;;4.57;0.97;;;;;;;-145.18;100.00;47094.06;4992943;28;20030;-76
2022/07/27 10:25:13;;;;;;;10.67;1.10;;;;;;;-145.18;100.00;47094.06;4988867;28;20710;-76
2022/07/27 10:27:39;;;;;;;3.53;1.10;;;;;;;-145.18;100.00;47082.34;4989724;28;20121;-76
2022/07/27 10:30:05;;;;;;;3.50;1.00;;;;;;;-145.18;100.00;47080.38;4992408;28;20101;-77
2022/07/27 10:32:32;;;;;;;2.43;1.00;;;;;;;-145.18;100.00;47078.44;4974977;28;20073;-76
2022/07/27 10:35:00;;;;;;;3.43;0.97;;;;;;;-145.18;100.00;47072.56;4992436;28;20096;-75
2022/07/27 10:37:31;;;;;;;7.20;1.07;;;;;;;-145.18;100.00;47062.81;4987126;28;20030;-76
2022/07/27 10:42:46;;;;;;;1.87;0.80;;;;;;;-145.18;96.67;47062.81;4983583;28;20132;-76
2022/07/27 10:45:15;;;;;;;2.20;1.30;;;;;;;-145.18;100.00;47047.19;4981102;28;20496;-76
2022/07/27 10:47:45;;;;;;;3.27;0.90;;;;;;;-145.18;94.98;47033.50;4982004;28;20018;-76
2022/07/27 10:50:11;;;;;;;3.73;0.93;;;;;;;-145.18;91.82;47043.28;4980127;28;20078;-77
2022/07/27 10:52:58;;;;;;;4.33;1.10;;;;;;;-145.18;93.20;47051.09;4982318;28;20035;-77
2022/07/27 10:55:35;;;;;;;3.13;1.07;;;;;;;-145.18;91.23;47049.13;4982158;28;20035;-76
2022/07/27 10:58:13;;;;;;;4.53;1.10;;;;;;;-145.18;100.00;47039.34;4981968;28;20050;-76
2022/07/27 11:00:47;;;;;;;2.63;0.80;;;;;;;-145.18;94.71;47021.78;4982682;28;20034;-77
2022/07/27 11:03:38;;;;;;;2.80;0.90;;;;;;;-145.18;92.83;47023.72;4980162;28;20466;-76
2022/07/27 11:06:17;;;;;;;2.43;0.90;;;;;;;-145.18;91.35;47025.69;4981651;28;20027;-76
2022/07/27 11:08:44;;;;;;;2.87;0.93;;;;;;;-145.18;94.78;47097.97;4974659;28;20039;-77
2022/07/27 11:11:14;;;;;;;2.83;1.00;;;;;;;-145.18;99.18;47066.72;4970576;28;20037;-77
2022/07/27 11:13:39;;;;;;;3.13;1.10;;;;;;;-145.18;100.00;47031.53;4978782;28;20407;-78
2022/07/27 11:16:10;;;;;;;2.63;1.47;;;;;;;-145.18;93.71;47017.88;4991470;28;20034;-78
2022/07/27 11:18:40;;;;;;;3.27;1.10;;;;;;;-145.18;93.57;47033.50;4991578;28;20034;-78